sensor_id;sensor_type;location;lat;lon;timestamp;pressure;altitude;pressure_sealevel;temperature;humidity
22257;BME280;11297;42.686;23.374;2022-10-19T00:01:50;95609.09;;;12.67;45.64
22257;BME280;11297;42.686;23.374;2022-10-19T00:04:15;95612.53;;;12.54;45.45
22257;BME280;11297;42.686;23.374;2022-10-19T00:06:41;95612.97;;;12.47;45.63
22257;BME280;11297;42.686;23.374;2022-10-19T00:09:11;95610.94;;;12.44;45.71
22257;BME280;11297;42.686;23.374;2022-10-19T00:11:39;95619.66;;;12.40;45.80
22257;BME280;11297;42.686;23.374;2022-10-19T00:14:06;95609.69;;;12.42;45.77
22257;BME280;11297;42.686;23.374;2022-10-19T00:16:34;95606.97;;;12.47;45.96
22257;BME280;11297;42.686;23.374;2022-10-19T00:19:01;95600.69;;;12.48;46.42
22257;BME280;11297;42.686;23.374;2022-10-19T00:21:27;95605.91;;;12.48;46.46
22257;BME280;11297;42.686;23.374;2022-10-19T00:23:53;95597.63;;;12.46;46.81
22257;BME280;11297;42.686;23.374;2022-10-19T00:26:18;95585.59;;;12.37;46.83
22257;BME280;11297;42.686;23.374;2022-10-19T00:28:44;95590.53;;;12.38;46.71
22257;BME280;11297;42.686;23.374;2022-10-19T00:31:12;95584.53;;;12.38;47.25
22257;BME280;11297;42.686;23.374;2022-10-19T00:33:39;95576.25;;;12.36;47.63
22257;BME280;11297;42.686;23.374;2022-10-19T00:36:05;95569.19;;;12.36;47.55
22257;BME280;11297;42.686;23.374;2022-10-19T00:38:31;95566.69;;;12.31;47.28
22257;BME280;11297;42.686;23.374;2022-10-19T00:40:57;95566.41;;;12.33;47.53
22257;BME280;11297;42.686;23.374;2022-10-19T00:43:25;95564.09;;;12.31;47.81
22257;BME280;11297;42.686;23.374;2022-10-19T00:45:51;95554.41;;;12.23;47.99
22257;BME280;11297;42.686;23.374;2022-10-19T00:48:29;95559.13;;;12.21;47.93
22257;BME280;11297;42.686;23.374;2022-10-19T00:50:56;95548.69;;;12.21;48.29
22257;BME280;11297;42.686;23.374;2022-10-19T00:53:25;95547.63;;;12.22;48.38
22257;BME280;11297;42.686;23.374;2022-10-19T00:55:52;95555.16;;;12.24;48.29
22257;BME280;11297;42.686;23.374;2022-10-19T00:58:18;95545.50;;;12.24;48.90
22257;BME280;11297;42.686;23.374;2022-10-19T01:00:43;95550.53;;;12.21;48.92
22257;BME280;11297;42.686;23.374;2022-10-19T01:03:10;95538.69;;;12.15;48.89
22257;BME280;11297;42.686;23.374;2022-10-19T01:05:37;95534.25;;;12.15;48.46
22257;BME280;11297;42.686;23.374;2022-10-19T01:08:03;95537.34;;;12.17;48.46
22257;BME280;11297;42.686;23.374;2022-10-19T01:13:16;95533.84;;;12.22;49.29
22257;BME280;11297;42.686;23.374;2022-10-19T01:15:51;95524.97;;;12.23;49.41
22257;BME280;11297;42.686;23.374;2022-10-19T01:26:36;95515.44;;;12.18;48.90
22257;BME280;11297;42.686;23.374;2022-10-19T01:32:10;95520.63;;;12.18;49.26
22257;BME280;11297;42.686;23.374;2022-10-19T01:35:53;95515.44;;;12.18;48.47
22257;BME280;11297;42.686;23.374;2022-10-19T01:40:32;95510.34;;;12.13;48.02
22257;BME280;11297;42.686;23.374;2022-10-19T01:43:06;95509.38;;;12.09;48.29
22257;BME280;11297;42.686;23.374;2022-10-19T01:45:41;95502.97;;;12.07;48.28
22257;BME280;11297;42.686;23.374;2022-10-19T01:48:14;95500.94;;;12.04;48.28
22257;BME280;11297;42.686;23.374;2022-10-19T01:50:47;95496.41;;;11.96;48.63
22257;BME280;11297;42.686;23.374;2022-10-19T01:53:16;95496.53;;;11.91;48.50
22257;BME280;11297;42.686;23.374;2022-10-19T01:55:44;95495.88;;;11.86;48.21
22257;BME280;11297;42.686;23.374;2022-10-19T01:58:17;95493.03;;;11.74;48.47
22257;BME280;11297;42.686;23.374;2022-10-19T02:00:48;95499.94;;;11.56;49.22
22257;BME280;11297;42.686;23.374;2022-10-19T02:03:16;95497.72;;;11.37;49.89
22257;BME280;11297;42.686;23.374;2022-10-19T02:05:43;95492.47;;;11.01;51.12
22257;BME280;11297;42.686;23.374;2022-10-19T02:08:13;95494.47;;;10.64;52.34
22257;BME280;11297;42.686;23.374;2022-10-19T02:10:42;95490.63;;;10.17;54.68
22257;BME280;11297;42.686;23.374;2022-10-19T02:13:10;95500.47;;;10.02;55.64
22257;BME280;11297;42.686;23.374;2022-10-19T02:15:40;95494.84;;;9.76;56.10
22257;BME280;11297;42.686;23.374;2022-10-19T02:18:09;95489.59;;;9.81;55.44
22257;BME280;11297;42.686;23.374;2022-10-19T02:20:37;95486.50;;;9.79;55.55
22257;BME280;11297;42.686;23.374;2022-10-19T02:23:06;95488.53;;;9.82;55.48
22257;BME280;11297;42.686;23.374;2022-10-19T02:25:32;95484.69;;;9.80;55.59
22257;BME280;11297;42.686;23.374;2022-10-19T02:28:00;95494.00;;;9.81;55.47
22257;BME280;11297;42.686;23.374;2022-10-19T02:30:27;95493.44;;;9.84;55.18
22257;BME280;11297;42.686;23.374;2022-10-19T02:32:52;95494.34;;;9.93;55.21
22257;BME280;11297;42.686;23.374;2022-10-19T02:35:18;95493.25;;;9.99;54.76
22257;BME280;11297;42.686;23.374;2022-10-19T02:37:44;95488.72;;;10.04;54.60
22257;BME280;11297;42.686;23.374;2022-10-19T02:40:10;95492.13;;;10.18;54.77
22257;BME280;11297;42.686;23.374;2022-10-19T02:45:17;95494.19;;;10.34;54.41
22257;BME280;11297;42.686;23.374;2022-10-19T02:47:49;95488.38;;;10.42;54.08
22257;BME280;11297;42.686;23.374;2022-10-19T02:50:18;95492.13;;;10.49;53.39
22257;BME280;11297;42.686;23.374;2022-10-19T02:52:44;95487.31;;;10.56;53.07
22257;BME280;11297;42.686;23.374;2022-10-19T02:55:09;95483.78;;;10.66;52.00
22257;BME280;11297;42.686;23.374;2022-10-19T02:57:35;95474.06;;;10.71;52.00
22257;BME280;11297;42.686;23.374;2022-10-19T03:00:01;95478.38;;;10.76;51.16
22257;BME280;11297;42.686;23.374;2022-10-19T03:02:28;95473.88;;;10.81;51.08
22257;BME280;11297;42.686;23.374;2022-10-19T03:04:53;95476.66;;;10.85;50.42
22257;BME280;11297;42.686;23.374;2022-10-19T03:07:20;95481.84;;;10.85;50.91
22257;BME280;11297;42.686;23.374;2022-10-19T03:09:45;95486.88;;;10.81;51.22
22257;BME280;11297;42.686;23.374;2022-10-19T03:12:12;95482.53;;;10.77;51.24
22257;BME280;11297;42.686;23.374;2022-10-19T03:14:37;95485.25;;;10.72;51.57
22257;BME280;11297;42.686;23.374;2022-10-19T03:17:03;95481.66;;;10.68;51.98
22257;BME280;11297;42.686;23.374;2022-10-19T03:19:29;95484.84;;;10.65;51.56
22257;BME280;11297;42.686;23.374;2022-10-19T03:21:54;95489.56;;;10.63;51.32
22257;BME280;11297;42.686;23.374;2022-10-19T03:24:19;95487.03;;;10.58;51.39
22257;BME280;11297;42.686;23.374;2022-10-19T03:26:45;95484.53;;;10.53;51.51
22257;BME280;11297;42.686;23.374;2022-10-19T03:29:10;95485.38;;;10.48;51.87
22257;BME280;11297;42.686;23.374;2022-10-19T03:31:36;95487.78;;;10.45;51.73
22257;BME280;11297;42.686;23.374;2022-10-19T03:34:01;95479.72;;;10.47;51.69
22257;BME280;11297;42.686;23.374;2022-10-19T03:36:30;95476.72;;;10.40;51.93
22257;BME280;11297;42.686;23.374;2022-10-19T03:38:58;95470.66;;;10.44;51.09
22257;BME280;11297;42.686;23.374;2022-10-19T03:41:28;95471.13;;;10.46;51.10
22257;BME280;11297;42.686;23.374;2022-10-19T03:43:55;95469.91;;;10.44;51.14
22257;BME280;11297;42.686;23.374;2022-10-19T03:46:21;95471.53;;;10.40;50.42
22257;BME280;11297;42.686;23.374;2022-10-19T03:48:46;95471.63;;;10.35;50.44
22257;BME280;11297;42.686;23.374;2022-10-19T03:51:14;95467.28;;;10.30;49.73
22257;BME280;11297;42.686;23.374;2022-10-19T03:53:41;95475.84;;;10.31;50.38
22257;BME280;11297;42.686;23.374;2022-10-19T03:56:15;95471.69;;;10.30;50.29
22257;BME280;11297;42.686;23.374;2022-10-19T03:58:41;95468.13;;;10.26;50.26
22257;BME280;11297;42.686;23.374;2022-10-19T04:01:13;95470.50;;;10.22;50.55
22257;BME280;11297;42.686;23.374;2022-10-19T04:03:38;95468.00;;;10.17;50.21
22257;BME280;11297;42.686;23.374;2022-10-19T04:06:06;95475.88;;;10.12;50.75
22257;BME280;11297;42.686;23.374;2022-10-19T04:08:32;95472.31;;;10.08;50.74
22257;BME280;11297;42.686;23.374;2022-10-19T04:11:02;95474.44;;;10.06;50.99
22257;BME280;11297;42.686;23.374;2022-10-19T04:13:28;95469.53;;;10.05;50.81
22257;BME280;11297;42.686;23.374;2022-10-19T04:15:54;95460.97;;;10.04;50.62
22257;BME280;11297;42.686;23.374;2022-10-19T04:18:19;95459.16;;;10.05;50.64
22257;BME280;11297;42.686;23.374;2022-10-19T04:20:45;95466.66;;;10.06;51.08
22257;BME280;11297;42.686;23.374;2022-10-19T04:23:10;95460.69;;;10.06;50.83
22257;BME280;11297;42.686;23.374;2022-10-19T04:25:35;95455.97;;;10.08;50.97
22257;BME280;11297;42.686;23.374;2022-10-19T04:28:01;95457.03;;;10.07;50.64
22257;BME280;11297;42.686;23.374;2022-10-19T04:30:26;95457.81;;;10.07;50.68
22257;BME280;11297;42.686;23.374;2022-10-19T04:32:51;95448.47;;;10.06;50.91
22257;BME280;11297;42.686;23.374;2022-10-19T04:35:17;95452.41;;;10.04;51.15
22257;BME280;11297;42.686;23.374;2022-10-19T04:37:42;95454.81;;;10.01;51.24
22257;BME280;11297;42.686;23.374;2022-10-19T04:40:08;95458.53;;;9.95;51.53
22257;BME280;11297;42.686;23.374;2022-10-19T04:42:34;95449.75;;;9.91;51.24
22257;BME280;11297;42.686;23.374;2022-10-19T04:44:59;95456.34;;;9.83;51.60
22257;BME280;11297;42.686;23.374;2022-10-19T04:47:24;95450.47;;;9.78;51.99
22257;BME280;11297;42.686;23.374;2022-10-19T04:49:50;95452.22;;;9.64;52.50
22257;BME280;11297;42.686;23.374;2022-10-19T04:52:15;95454.16;;;9.58;52.33
22257;BME280;11297;42.686;23.374;2022-10-19T04:54:41;95463.53;;;9.54;52.82
22257;BME280;11297;42.686;23.374;2022-10-19T04:57:06;95454.44;;;9.57;52.98
22257;BME280;11297;42.686;23.374;2022-10-19T04:59:31;95459.66;;;9.52;53.33
22257;BME280;11297;42.686;23.374;2022-10-19T05:01:57;95459.53;;;9.62;53.11
22257;BME280;11297;42.686;23.374;2022-10-19T05:04:22;95462.66;;;9.77;53.44
22257;BME280;11297;42.686;23.374;2022-10-19T05:06:47;95450.31;;;9.88;53.14
22257;BME280;11297;42.686;23.374;2022-10-19T05:09:13;95453.00;;;9.83;53.29
22257;BME280;11297;42.686;23.374;2022-10-19T05:11:38;95458.84;;;10.06;53.09
22257;BME280;11297;42.686;23.374;2022-10-19T05:14:04;95453.41;;;10.21;52.55
22257;BME280;11297;42.686;23.374;2022-10-19T05:16:29;95450.91;;;10.30;52.26
22257;BME280;11297;42.686;23.374;2022-10-19T05:18:55;95438.25;;;10.55;51.95
22257;BME280;11297;42.686;23.374;2022-10-19T05:21:23;95439.91;;;10.78;51.17
22257;BME280;11297;42.686;23.374;2022-10-19T05:23:53;95436.22;;;10.92;51.22
22257;BME280;11297;42.686;23.374;2022-10-19T05:26:20;95443.38;;;11.00;50.58
22257;BME280;11297;42.686;23.374;2022-10-19T05:28:48;95445.84;;;11.18;51.29
22257;BME280;11297;42.686;23.374;2022-10-19T05:31:16;95452.25;;;11.34;50.70
22257;BME280;11297;42.686;23.374;2022-10-19T05:33:42;95454.03;;;11.60;49.38
22257;BME280;11297;42.686;23.374;2022-10-19T05:38:35;95450.50;;;11.56;49.45
22257;BME280;11297;42.686;23.374;2022-10-19T05:41:00;95454.78;;;11.74;49.58
22257;BME280;11297;42.686;23.374;2022-10-19T05:43:26;95453.66;;;11.89;48.83
22257;BME280;11297;42.686;23.374;2022-10-19T05:45:51;95454.25;;;12.07;48.13
22257;BME280;11297;42.686;23.374;2022-10-19T05:48:16;95460.50;;;12.28;47.59
22257;BME280;11297;42.686;23.374;2022-10-19T05:50:52;95448.00;;;12.39;47.34
22257;BME280;11297;42.686;23.374;2022-10-19T05:53:18;95454.56;;;12.66;46.84
22257;BME280;11297;42.686;23.374;2022-10-19T05:55:43;95452.16;;;12.78;46.49
22257;BME280;11297;42.686;23.374;2022-10-19T05:58:08;95431.94;;;12.84;45.74
22257;BME280;11297;42.686;23.374;2022-10-19T06:00:34;95451.97;;;13.13;45.04
22257;BME280;11297;42.686;23.374;2022-10-19T06:02:59;95449.84;;;13.15;45.22
22257;BME280;11297;42.686;23.374;2022-10-19T06:05:24;95454.94;;;13.37;44.80
22257;BME280;11297;42.686;23.374;2022-10-19T06:07:50;95452.19;;;13.50;44.51
22257;BME280;11297;42.686;23.374;2022-10-19T06:10:15;95459.19;;;13.16;45.36
22257;BME280;11297;42.686;23.374;2022-10-19T06:12:41;95450.84;;;13.61;44.59
22257;BME280;11297;42.686;23.374;2022-10-19T06:15:07;95459.72;;;13.85;44.00
22257;BME280;11297;42.686;23.374;2022-10-19T06:17:32;95458.97;;;13.77;44.45
22257;BME280;11297;42.686;23.374;2022-10-19T06:19:58;95467.25;;;13.87;43.92
22257;BME280;11297;42.686;23.374;2022-10-19T06:22:23;95467.25;;;14.04;43.79
22257;BME280;11297;42.686;23.374;2022-10-19T06:24:48;95457.88;;;14.28;43.03
22257;BME280;11297;42.686;23.374;2022-10-19T06:27:14;95471.84;;;14.32;43.29
22257;BME280;11297;42.686;23.374;2022-10-19T06:29:39;95471.97;;;14.44;42.85
22257;BME280;11297;42.686;23.374;2022-10-19T06:32:04;95465.34;;;14.55;42.63
22257;BME280;11297;42.686;23.374;2022-10-19T06:34:30;95472.56;;;14.58;42.71
22257;BME280;11297;42.686;23.374;2022-10-19T06:36:55;95466.22;;;14.76;42.63
22257;BME280;11297;42.686;23.374;2022-10-19T06:39:20;95470.63;;;15.21;41.50
22257;BME280;11297;42.686;23.374;2022-10-19T06:41:46;95470.50;;;15.46;40.61
22257;BME280;11297;42.686;23.374;2022-10-19T06:44:11;95468.00;;;15.49;40.82
22257;BME280;11297;42.686;23.374;2022-10-19T06:46:37;95463.84;;;15.69;40.38
22257;BME280;11297;42.686;23.374;2022-10-19T06:49:02;95464.78;;;16.05;39.65
22257;BME280;11297;42.686;23.374;2022-10-19T06:51:29;95455.06;;;16.26;39.38
22257;BME280;11297;42.686;23.374;2022-10-19T06:53:56;95442.84;;;16.62;38.29
22257;BME280;11297;42.686;23.374;2022-10-19T06:56:22;95442.19;;;16.76;37.96
22257;BME280;11297;42.686;23.374;2022-10-19T06:58:48;95442.41;;;17.07;37.47
22257;BME280;11297;42.686;23.374;2022-10-19T07:01:14;95446.81;;;17.03;37.51
22257;BME280;11297;42.686;23.374;2022-10-19T07:03:39;95430.34;;;17.66;36.68
22257;BME280;11297;42.686;23.374;2022-10-19T07:06:07;95432.75;;;17.98;35.71
22257;BME280;11297;42.686;23.374;2022-10-19T07:08:34;95430.91;;;17.98;35.59
22257;BME280;11297;42.686;23.374;2022-10-19T07:11:02;95425.59;;;18.10;35.34
22257;BME280;11297;42.686;23.374;2022-10-19T07:13:28;95434.28;;;18.53;35.07
22257;BME280;11297;42.686;23.374;2022-10-19T07:16:08;95433.09;;;19.12;33.89
22257;BME280;11297;42.686;23.374;2022-10-19T07:18:36;95426.13;;;19.35;33.67
22257;BME280;11297;42.686;23.374;2022-10-19T07:21:05;95424.31;;;19.39;33.37
22257;BME280;11297;42.686;23.374;2022-10-19T07:23:32;95426.72;;;19.63;33.12
22257;BME280;11297;42.686;23.374;2022-10-19T07:25:58;95422.94;;;19.45;33.20
22257;BME280;11297;42.686;23.374;2022-10-19T07:28:28;95423.94;;;19.74;32.73
22257;BME280;11297;42.686;23.374;2022-10-19T07:30:54;95424.53;;;19.65;32.39
22257;BME280;11297;42.686;23.374;2022-10-19T07:33:20;95421.66;;;19.54;32.80
22257;BME280;11297;42.686;23.374;2022-10-19T07:35:46;95415.91;;;19.67;32.51
22257;BME280;11297;42.686;23.374;2022-10-19T07:38:11;95419.13;;;19.76;32.71
22257;BME280;11297;42.686;23.374;2022-10-19T07:40:37;95416.53;;;20.36;32.17
22257;BME280;11297;42.686;23.374;2022-10-19T07:43:02;95406.56;;;20.49;31.92
22257;BME280;11297;42.686;23.374;2022-10-19T07:45:28;95399.66;;;20.41;32.29
22257;BME280;11297;42.686;23.374;2022-10-19T07:47:54;95394.81;;;20.46;31.26
22257;BME280;11297;42.686;23.374;2022-10-19T07:50:19;95389.03;;;20.60;31.61
22257;BME280;11297;42.686;23.374;2022-10-19T07:52:47;95388.13;;;20.30;31.88
22257;BME280;11297;42.686;23.374;2022-10-19T07:55:12;95384.63;;;20.45;32.04
22257;BME280;11297;42.686;23.374;2022-10-19T07:57:37;95377.34;;;21.05;31.11
22257;BME280;11297;42.686;23.374;2022-10-19T08:00:03;95358.84;;;21.57;30.25
22257;BME280;11297;42.686;23.374;2022-10-19T08:02:29;95371.00;;;21.94;30.07
22257;BME280;11297;42.686;23.374;2022-10-19T08:04:54;95365.88;;;22.08;29.90
22257;BME280;11297;42.686;23.374;2022-10-19T08:07:19;95370.88;;;22.16;29.39
22257;BME280;11297;42.686;23.374;2022-10-19T08:09:45;95370.84;;;22.49;28.92
22257;BME280;11297;42.686;23.374;2022-10-19T08:12:10;95362.28;;;22.26;29.59
22257;BME280;11297;42.686;23.374;2022-10-19T08:14:36;95368.66;;;22.58;28.50
22257;BME280;11297;42.686;23.374;2022-10-19T08:17:01;95376.00;;;22.35;29.26
22257;BME280;11297;42.686;23.374;2022-10-19T08:19:27;95358.38;;;22.53;29.18
22257;BME280;11297;42.686;23.374;2022-10-19T08:21:52;95360.25;;;22.49;29.04
22257;BME280;11297;42.686;23.374;2022-10-19T08:24:18;95362.50;;;22.47;29.45
22257;BME280;11297;42.686;23.374;2022-10-19T08:26:44;95360.38;;;23.06;28.56
22257;BME280;11297;42.686;23.374;2022-10-19T08:29:15;95357.59;;;23.45;28.03
22257;BME280;11297;42.686;23.374;2022-10-19T08:31:42;95352.47;;;23.16;27.79
22257;BME280;11297;42.686;23.374;2022-10-19T08:34:08;95349.22;;;22.86;28.28
22257;BME280;11297;42.686;23.374;2022-10-19T08:36:34;95347.59;;;22.75;29.16
22257;BME280;11297;42.686;23.374;2022-10-19T08:39:01;95344.56;;;22.73;28.72
22257;BME280;11297;42.686;23.374;2022-10-19T08:42:13;95337.63;;;23.05;28.71
22257;BME280;11297;42.686;23.374;2022-10-19T08:45:02;95341.00;;;22.98;28.40
22257;BME280;11297;42.686;23.374;2022-10-19T08:47:49;95341.56;;;23.24;28.29
22257;BME280;11297;42.686;23.374;2022-10-19T08:50:23;95329.31;;;23.80;27.75
22257;BME280;11297;42.686;23.374;2022-10-19T08:53:07;95324.69;;;23.63;27.96
22257;BME280;11297;42.686;23.374;2022-10-19T08:58:34;95322.31;;;23.38;27.52
22257;BME280;11297;42.686;23.374;2022-10-19T09:01:10;95317.84;;;23.55;27.98
22257;BME280;11297;42.686;23.374;2022-10-19T09:03:45;95320.63;;;23.80;27.60
22257;BME280;11297;42.686;23.374;2022-10-19T09:06:21;95321.81;;;23.93;27.20
22257;BME280;11297;42.686;23.374;2022-10-19T09:08:53;95316.50;;;23.93;27.38
22257;BME280;11297;42.686;23.374;2022-10-19T09:11:23;95309.69;;;24.05;26.96
22257;BME280;11297;42.686;23.374;2022-10-19T09:13:57;95310.41;;;23.92;26.65
22257;BME280;11297;42.686;23.374;2022-10-19T09:16:25;95311.91;;;23.79;27.81
22257;BME280;11297;42.686;23.374;2022-10-19T09:18:51;95311.16;;;23.82;26.87
22257;BME280;11297;42.686;23.374;2022-10-19T09:21:27;95303.53;;;23.77;27.10
22257;BME280;11297;42.686;23.374;2022-10-19T09:26:27;95297.44;;;23.66;27.26
22257;BME280;11297;42.686;23.374;2022-10-19T09:29:06;95302.31;;;23.54;28.92
22257;BME280;11297;42.686;23.374;2022-10-19T09:31:39;95310.53;;;23.35;27.94
22257;BME280;11297;42.686;23.374;2022-10-19T09:36:43;95304.13;;;23.40;28.41
22257;BME280;11297;42.686;23.374;2022-10-19T09:39:13;95305.59;;;23.34;28.18
22257;BME280;11297;42.686;23.374;2022-10-19T09:41:46;95312.16;;;22.93;28.85
22257;BME280;11297;42.686;23.374;2022-10-19T09:44:14;95305.41;;;22.99;28.67
22257;BME280;11297;42.686;23.374;2022-10-19T09:46:49;95296.41;;;23.14;28.57
22257;BME280;11297;42.686;23.374;2022-10-19T09:49:18;95295.28;;;23.15;28.77
22257;BME280;11297;42.686;23.374;2022-10-19T09:52:01;95301.72;;;23.17;28.88
22257;BME280;11297;42.686;23.374;2022-10-19T09:54:33;95302.63;;;23.46;28.44
22257;BME280;11297;42.686;23.374;2022-10-19T09:56:59;95295.03;;;23.44;29.11
22257;BME280;11297;42.686;23.374;2022-10-19T09:59:29;95294.63;;;23.32;28.65
22257;BME280;11297;42.686;23.374;2022-10-19T10:02:03;95291.81;;;23.04;29.19
22257;BME280;11297;42.686;23.374;2022-10-19T10:04:34;95294.53;;;23.14;28.89
22257;BME280;11297;42.686;23.374;2022-10-19T10:07:02;95283.56;;;23.19;29.07
22257;BME280;11297;42.686;23.374;2022-10-19T10:09:28;95287.06;;;23.37;28.17
22257;BME280;11297;42.686;23.374;2022-10-19T10:11:56;95276.06;;;23.35;28.89
22257;BME280;11297;42.686;23.374;2022-10-19T10:14:26;95280.44;;;23.78;27.77
22257;BME280;11297;42.686;23.374;2022-10-19T10:17:00;95272.47;;;23.85;28.42
22257;BME280;11297;42.686;23.374;2022-10-19T10:19:28;95266.78;;;23.79;28.05
22257;BME280;11297;42.686;23.374;2022-10-19T10:21:56;95257.28;;;23.82;28.53
22257;BME280;11297;42.686;23.374;2022-10-19T10:24:32;95250.53;;;24.12;28.40
22257;BME280;11297;42.686;23.374;2022-10-19T10:27:00;95250.91;;;24.21;28.19
22257;BME280;11297;42.686;23.374;2022-10-19T10:29:55;95246.03;;;24.40;26.87
22257;BME280;11297;42.686;23.374;2022-10-19T10:32:21;95242.19;;;24.79;26.42
22257;BME280;11297;42.686;23.374;2022-10-19T10:34:56;95232.31;;;24.73;26.29
22257;BME280;11297;42.686;23.374;2022-10-19T10:37:36;95235.38;;;24.54;26.95
22257;BME280;11297;42.686;23.374;2022-10-19T10:40:04;95223.25;;;24.39;26.55
22257;BME280;11297;42.686;23.374;2022-10-19T10:42:36;95222.84;;;24.51;26.15
22257;BME280;11297;42.686;23.374;2022-10-19T10:45:16;95219.03;;;24.76;26.56
22257;BME280;11297;42.686;23.374;2022-10-19T10:47:42;95208.72;;;24.89;26.86
22257;BME280;11297;42.686;23.374;2022-10-19T10:50:26;95211.41;;;24.78;27.58
22257;BME280;11297;42.686;23.374;2022-10-19T10:53:01;95205.75;;;24.73;26.24
22257;BME280;11297;42.686;23.374;2022-10-19T10:55:28;95199.63;;;25.00;27.13
22257;BME280;11297;42.686;23.374;2022-10-19T10:58:14;95188.16;;;25.17;26.29
22257;BME280;11297;42.686;23.374;2022-10-19T11:00:41;95182.53;;;24.84;27.01
22257;BME280;11297;42.686;23.374;2022-10-19T11:03:24;95185.59;;;24.72;26.35
22257;BME280;11297;42.686;23.374;2022-10-19T11:05:59;95186.03;;;24.43;26.65
22257;BME280;11297;42.686;23.374;2022-10-19T11:11:00;95183.38;;;24.22;26.38
22257;BME280;11297;42.686;23.374;2022-10-19T11:13:59;95179.97;;;24.11;26.81
22257;BME280;11297;42.686;23.374;2022-10-19T11:16:32;95180.72;;;23.94;27.53
22257;BME280;11297;42.686;23.374;2022-10-19T11:19:01;95184.13;;;23.81;26.36
22257;BME280;11297;42.686;23.374;2022-10-19T11:27:37;95167.72;;;23.41;26.32
22257;BME280;11297;42.686;23.374;2022-10-19T11:30:14;95163.88;;;23.28;27.63
22257;BME280;11297;42.686;23.374;2022-10-19T11:40:54;95157.50;;;22.61;26.61
22257;BME280;11297;42.686;23.374;2022-10-19T11:46:36;95150.91;;;22.28;27.37
22257;BME280;11297;42.686;23.374;2022-10-19T11:54:37;95142.97;;;22.28;38.28
22257;BME280;11297;42.686;23.374;2022-10-19T11:57:44;95125.38;;;22.09;31.13
22257;BME280;11297;42.686;23.374;2022-10-19T12:00:15;95124.00;;;22.22;37.90
22257;BME280;11297;42.686;23.374;2022-10-19T12:08:15;95098.53;;;22.75;43.42
22257;BME280;11297;42.686;23.374;2022-10-19T12:13:26;95115.31;;;22.96;38.77
22257;BME280;11297;42.686;23.374;2022-10-19T12:15:54;95094.00;;;22.75;29.50
22257;BME280;11297;42.686;23.374;2022-10-19T12:18:40;95099.97;;;22.52;28.55
22257;BME280;11297;42.686;23.374;2022-10-19T12:21:16;95102.31;;;22.67;42.26
22257;BME280;11297;42.686;23.374;2022-10-19T12:23:44;95113.28;;;22.69;32.50
22257;BME280;11297;42.686;23.374;2022-10-19T12:26:14;95111.03;;;22.74;30.93
22257;BME280;11297;42.686;23.374;2022-10-19T12:28:42;95111.03;;;22.71;33.09
22257;BME280;11297;42.686;23.374;2022-10-19T12:31:11;95112.94;;;22.74;28.67
22257;BME280;11297;42.686;23.374;2022-10-19T12:36:43;95103.00;;;22.50;25.38
22257;BME280;11297;42.686;23.374;2022-10-19T12:39:27;95093.81;;;22.34;26.14
22257;BME280;11297;42.686;23.374;2022-10-19T12:47:20;95092.75;;;21.92;26.92
22257;BME280;11297;42.686;23.374;2022-10-19T12:49:51;95092.72;;;21.85;26.89
22257;BME280;11297;42.686;23.374;2022-10-19T12:57:45;95091.50;;;21.75;28.25
22257;BME280;11297;42.686;23.374;2022-10-19T13:00:24;95091.47;;;21.72;28.69
22257;BME280;11297;42.686;23.374;2022-10-19T13:02:58;95081.25;;;21.67;29.21
22257;BME280;11297;42.686;23.374;2022-10-19T13:05:28;95089.56;;;21.69;29.27
22257;BME280;11297;42.686;23.374;2022-10-19T13:07:55;95085.75;;;21.63;29.63
22257;BME280;11297;42.686;23.374;2022-10-19T13:10:25;95084.28;;;21.69;29.71
22257;BME280;11297;42.686;23.374;2022-10-19T13:12:52;95082.00;;;21.67;29.89
22257;BME280;11297;42.686;23.374;2022-10-19T13:18:13;95072.94;;;21.68;29.91
22257;BME280;11297;42.686;23.374;2022-10-19T13:20:49;95080.44;;;21.63;30.06
22257;BME280;11297;42.686;23.374;2022-10-19T13:25:42;95072.88;;;21.61;30.28
22257;BME280;11297;42.686;23.374;2022-10-19T13:41:03;95081.16;;;21.57;30.36
22257;BME280;11297;42.686;23.374;2022-10-19T14:10:59;95049.88;;;21.65;36.52
22257;BME280;11297;42.686;23.374;2022-10-19T14:13:25;95050.69;;;21.73;38.14
22257;BME280;11297;42.686;23.374;2022-10-19T14:15:53;95046.56;;;21.79;34.07
22257;BME280;11297;42.686;23.374;2022-10-19T14:18:27;95045.78;;;21.78;41.33
22257;BME280;11297;42.686;23.374;2022-10-19T14:20:58;95026.84;;;21.69;30.65
22257;BME280;11297;42.686;23.374;2022-10-19T14:23:32;95042.69;;;21.66;30.92
22257;BME280;11297;42.686;23.374;2022-10-19T14:26:30;95044.91;;;21.60;30.28
22257;BME280;11297;42.686;23.374;2022-10-19T14:28:57;95047.84;;;21.49;30.38
22257;BME280;11297;42.686;23.374;2022-10-19T14:31:34;95058.41;;;21.49;30.47
22257;BME280;11297;42.686;23.374;2022-10-19T14:34:03;95043.16;;;21.32;30.62
22257;BME280;11297;42.686;23.374;2022-10-19T14:36:42;95056.00;;;21.33;30.97
22257;BME280;11297;42.686;23.374;2022-10-19T14:39:21;95051.06;;;21.28;31.02
22257;BME280;11297;42.686;23.374;2022-10-19T14:41:52;95057.81;;;21.22;31.01
22257;BME280;11297;42.686;23.374;2022-10-19T14:44:47;95051.28;;;21.13;31.42
22257;BME280;11297;42.686;23.374;2022-10-19T14:49:42;95061.34;;;20.97;31.66
22257;BME280;11297;42.686;23.374;2022-10-19T14:52:09;95057.88;;;20.93;32.23
22257;BME280;11297;42.686;23.374;2022-10-19T14:54:41;95062.34;;;20.89;31.75
22257;BME280;11297;42.686;23.374;2022-10-19T14:57:07;95066.91;;;20.89;31.89
22257;BME280;11297;42.686;23.374;2022-10-19T14:59:42;95069.41;;;20.78;32.68
22257;BME280;11297;42.686;23.374;2022-10-19T15:02:29;95072.59;;;20.62;32.06
22257;BME280;11297;42.686;23.374;2022-10-19T15:04:58;95066.34;;;20.44;32.25
22257;BME280;11297;42.686;23.374;2022-10-19T15:07:37;95069.03;;;20.47;32.15